Time,TemperatureF,DewpointF,PressureIn,WindDirection,WindDirectionDegrees,WindSpeedMPH,WindSpeedGustMPH,Humidity,HourlyPrecipIn,Conditions,Clouds,dailyrainin,SolarRadiationWatts/m^2,SoftwareType,DateUTC
2013-02-24 00:01:00,57.0,52.0,-100.00,South,191,2.0,8.0,82,0.00,,,0.00,0.000000,,2013-02-24 10:01:00,
2013-02-24 00:11:00,57.0,52.0,-100.00,South,191,2.0,8.0,82,0.00,,,0.00,0.000000,,2013-02-24 10:11:00,
2013-02-24 00:21:00,57.0,52.0,-100.00,South,191,2.0,8.0,82,0.00,,,0.00,0.000000,,2013-02-24 10:21:00,
2013-02-24 00:31:00,57.0,52.0,-100.00,South,191,2.0,8.0,82,0.00,,,0.00,0.000000,,2013-02-24 10:31:00,
2013-02-24 01:01:00,58.0,52.0,-100.00,SSE,148,2.0,13.0,81,0.00,,,0.00,0.000000,,2013-02-24 11:01:00,
2013-02-24 01:11:00,58.0,52.0,-100.00,SSE,148,2.0,13.0,81,0.00,,,0.00,0.000000,,2013-02-24 11:11:00,
2013-02-24 01:21:00,58.0,52.0,-100.00,SSE,148,2.0,13.0,81,0.00,,,0.00,0.000000,,2013-02-24 11:21:00,
2013-02-24 01:32:00,58.0,52.0,-100.00,SSE,148,2.0,13.0,81,0.00,,,0.00,0.000000,,2013-02-24 11:32:00,
2013-02-24 02:01:00,57.0,51.0,-100.00,SE,142,4.0,9.0,79,0.00,,,0.00,0.000000,,2013-02-24 12:01:00,
2013-02-24 02:11:00,57.0,51.0,-100.00,SE,142,4.0,9.0,79,0.00,,,0.00,0.000000,,2013-02-24 12:11:00,
2013-02-24 02:21:00,57.0,51.0,-100.00,SE,142,4.0,9.0,79,0.00,,,0.00,0.000000,,2013-02-24 12:21:00,
2013-02-24 02:32:00,57.0,51.0,-100.00,SE,142,4.0,9.0,79,0.00,,,0.00,0.000000,,2013-02-24 12:32:00,
2013-02-24 03:08:00,56.0,51.0,-100.00,SE,142,5.0,11.0,84,0.00,,,0.00,0.000000,,2013-02-24 13:08:00,
2013-02-24 03:15:00,56.0,51.0,-100.00,SE,142,5.0,11.0,84,0.00,,,0.00,0.000000,,2013-02-24 13:15:00,
2013-02-24 03:24:00,56.0,51.0,-100.00,SE,142,5.0,11.0,84,0.00,,,0.00,0.000000,,2013-02-24 13:24:00,
2013-02-24 03:32:00,56.0,51.0,-100.00,SE,142,5.0,11.0,84,0.00,,,0.00,0.000000,,2013-02-24 13:32:00,
2013-02-24 04:03:00,58.0,48.0,-100.00,ESE,117,5.0,10.0,70,0.00,,,0.00,0.000000,,2013-02-24 14:03:00,
2013-02-24 04:12:00,58.0,48.0,-100.00,ESE,117,5.0,10.0,70,0.00,,,0.00,0.000000,,2013-02-24 14:12:00,
2013-02-24 04:23:00,58.0,48.0,-100.00,ESE,117,5.0,10.0,70,0.00,,,0.00,0.000000,,2013-02-24 14:23:00,
2013-02-24 04:32:00,58.0,48.0,-100.00,ESE,117,5.0,10.0,70,0.00,,,0.00,0.000000,,2013-02-24 14:32:00,
2013-02-24 04:54:00,55.0,52.0,-100.00,South,181,6.0,9.0,89,0.00,,,0.00,0.000000,,2013-02-24 14:54:00,
2013-02-24 05:12:00,55.0,52.0,-100.00,South,181,6.0,9.0,89,0.00,,,0.00,0.000000,,2013-02-24 15:12:00,
2013-02-24 05:22:00,55.0,52.0,-100.00,South,181,6.0,9.0,89,0.00,,,0.00,0.000000,,2013-02-24 15:22:00,
2013-02-24 05:31:00,55.0,52.0,-100.00,South,181,6.0,9.0,89,0.00,,,0.00,0.000000,,2013-02-24 15:31:00,
2013-02-24 06:01:00,54.0,51.0,-100.00,SSE,156,7.0,11.0,88,0.00,,,0.00,0.000000,,2013-02-24 16:01:00,
2013-02-24 06:11:00,54.0,51.0,-100.00,SSE,156,7.0,11.0,88,0.00,,,0.00,0.000000,,2013-02-24 16:11:00,
2013-02-24 06:21:00,54.0,51.0,-100.00,SSE,156,7.0,11.0,88,0.00,,,0.00,0.000000,,2013-02-24 16:21:00,
2013-02-24 06:31:00,54.0,51.0,-100.00,SSE,156,7.0,11.0,88,0.00,,,0.00,0.000000,,2013-02-24 16:31:00,
2013-02-24 07:01:00,53.0,49.0,-100.00,ENE,66,3.0,9.0,87,0.00,,,0.00,0.000000,,2013-02-24 17:01:00,
2013-02-24 07:11:00,53.0,49.0,-100.00,ENE,66,3.0,9.0,87,0.00,,,0.00,0.000000,,2013-02-24 17:11:00,
2013-02-24 07:21:00,53.0,49.0,-100.00,ENE,66,3.0,9.0,87,0.00,,,0.00,0.000000,,2013-02-24 17:21:00,
2013-02-24 07:31:00,53.0,49.0,-100.00,ENE,66,3.0,9.0,87,0.00,,,0.00,0.000000,,2013-02-24 17:31:00,
2013-02-24 08:01:00,60.0,52.0,-100.00,East,101,1.0,13.0,75,0.00,,,0.00,52.000000,,2013-02-24 18:01:00,
2013-02-24 08:11:00,60.0,52.0,-100.00,East,101,1.0,13.0,75,0.00,,,0.00,52.000000,,2013-02-24 18:11:00,
2013-02-24 08:21:00,60.0,52.0,-100.00,East,101,1.0,13.0,75,0.00,,,0.00,52.000000,,2013-02-24 18:21:00,
2013-02-24 08:31:00,60.0,52.0,-100.00,East,101,1.0,13.0,75,0.00,,,0.00,52.000000,,2013-02-24 18:31:00,
2013-02-24 08:52:00,68.0,51.0,-100.00,NNW,336,2.0,8.0,54,0.00,,,0.00,335.000000,,2013-02-24 18:52:00,
2013-02-24 09:01:00,68.0,51.0,-100.00,NNW,336,2.0,8.0,54,0.00,,,0.00,335.000000,,2013-02-24 19:01:00,
2013-02-24 09:11:00,68.0,51.0,-100.00,NNW,336,2.0,8.0,54,0.00,,,0.00,335.000000,,2013-02-24 19:11:00,
2013-02-24 09:22:00,68.0,51.0,-100.00,NNW,336,2.0,8.0,54,0.00,,,0.00,335.000000,,2013-02-24 19:22:00,
2013-02-24 09:31:00,68.0,51.0,-100.00,NNW,336,2.0,8.0,54,0.00,,,0.00,335.000000,,2013-02-24 19:31:00,
2013-02-24 10:02:00,68.0,53.0,-100.00,SW,234,9.0,14.0,58,0.00,,,0.00,634.000000,,2013-02-24 20:02:00,
2013-02-24 10:11:00,68.0,53.0,-100.00,SW,234,9.0,14.0,58,0.00,,,0.00,634.000000,,2013-02-24 20:11:00,
2013-02-24 10:21:00,68.0,53.0,-100.00,SW,234,9.0,14.0,58,0.00,,,0.00,634.000000,,2013-02-24 20:21:00,
2013-02-24 10:31:00,68.0,53.0,-100.00,SW,234,9.0,14.0,58,0.00,,,0.00,634.000000,,2013-02-24 20:31:00,
2013-02-24 11:01:00,71.0,53.0,-100.00,West,281,7.0,16.0,53,0.00,,,0.00,834.000000,,2013-02-24 21:01:00,
2013-02-24 11:11:00,71.0,53.0,-100.00,West,281,7.0,16.0,53,0.00,,,0.00,834.000000,,2013-02-24 21:11:00,
2013-02-24 11:21:00,71.0,53.0,-100.00,West,281,7.0,16.0,53,0.00,,,0.00,834.000000,,2013-02-24 21:21:00,
2013-02-24 11:31:00,71.0,53.0,-100.00,West,281,7.0,16.0,53,0.00,,,0.00,834.000000,,2013-02-24 21:31:00,
2013-02-24 12:01:00,73.0,53.0,-100.00,West,281,11.0,20.0,50,0.00,,,0.00,1144.000000,,2013-02-24 22:01:00,
2013-02-24 12:11:00,73.0,53.0,-100.00,West,281,11.0,20.0,50,0.00,,,0.00,1144.000000,,2013-02-24 22:11:00,
2013-02-24 12:21:00,73.0,53.0,-100.00,West,281,11.0,20.0,50,0.00,,,0.00,1144.000000,,2013-02-24 22:21:00,
2013-02-24 12:31:00,73.0,53.0,-100.00,West,281,11.0,20.0,50,0.00,,,0.00,1144.000000,,2013-02-24 22:31:00,
2013-02-24 13:02:00,76.0,55.0,-100.00,NNW,348,8.0,28.0,48,0.00,,,0.00,1024.000000,,2013-02-24 23:02:00,
2013-02-24 13:11:00,76.0,55.0,-100.00,NNW,348,8.0,28.0,48,0.00,,,0.00,1024.000000,,2013-02-24 23:11:00,
2013-02-24 13:21:00,76.0,55.0,-100.00,NNW,348,8.0,28.0,48,0.00,,,0.00,1024.000000,,2013-02-24 23:21:00,
2013-02-24 13:31:00,76.0,55.0,-100.00,NNW,348,8.0,28.0,48,0.00,,,0.00,1024.000000,,2013-02-24 23:31:00,
2013-02-24 14:01:00,75.0,55.0,-100.00,NNE,20,14.0,21.0,49,0.00,,,0.00,641.000000,,2013-02-25 00:01:00,
2013-02-24 14:11:00,75.0,55.0,-100.00,NNE,20,14.0,21.0,49,0.00,,,0.00,641.000000,,2013-02-25 00:11:00,
2013-02-24 14:21:00,75.0,55.0,-100.00,NNE,20,14.0,21.0,49,0.00,,,0.00,641.000000,,2013-02-25 00:21:00,
2013-02-24 14:31:00,75.0,55.0,-100.00,NNE,20,14.0,21.0,49,0.00,,,0.00,641.000000,,2013-02-25 00:31:00,
2013-02-24 15:01:00,77.0,50.0,-100.00,NNE,28,14.0,26.0,39,0.00,,,0.00,1062.000000,,2013-02-25 01:01:00,
2013-02-24 15:11:00,77.0,50.0,-100.00,NNE,28,14.0,26.0,39,0.00,,,0.00,1062.000000,,2013-02-25 01:11:00,
2013-02-24 15:21:00,77.0,50.0,-100.00,NNE,28,14.0,26.0,39,0.00,,,0.00,1062.000000,,2013-02-25 01:21:00,
2013-02-24 15:31:00,77.0,50.0,-100.00,NNE,28,14.0,26.0,39,0.00,,,0.00,1062.000000,,2013-02-25 01:31:00,
2013-02-24 16:01:00,77.0,55.0,-100.00,NNE,30,11.0,32.0,47,0.00,,,0.00,810.000000,,2013-02-25 02:01:00,
2013-02-24 16:11:00,77.0,55.0,-100.00,NNE,30,11.0,32.0,47,0.00,,,0.00,810.000000,,2013-02-25 02:11:00,
2013-02-24 16:21:00,77.0,55.0,-100.00,NNE,30,11.0,32.0,47,0.00,,,0.00,810.000000,,2013-02-25 02:21:00,
2013-02-24 16:31:00,77.0,55.0,-100.00,NNE,30,11.0,32.0,47,0.00,,,0.00,810.000000,,2013-02-25 02:31:00,
2013-02-24 17:01:00,81.0,53.0,-100.00,NNW,334,6.0,34.0,38,0.00,,,0.00,752.000000,,2013-02-25 03:01:00,
2013-02-24 17:11:00,81.0,53.0,-100.00,NNW,334,6.0,34.0,38,0.00,,,0.00,752.000000,,2013-02-25 03:11:00,
2013-02-24 17:21:00,81.0,53.0,-100.00,NNW,334,6.0,34.0,38,0.00,,,0.00,752.000000,,2013-02-25 03:21:00,
2013-02-24 17:31:00,81.0,53.0,-100.00,NNW,334,6.0,34.0,38,0.00,,,0.00,752.000000,,2013-02-25 03:31:00,
2013-02-24 18:01:00,69.0,52.0,-100.00,NE,36,8.0,28.0,55,0.00,,,0.00,140.000000,,2013-02-25 04:01:00,
2013-02-24 18:11:00,69.0,52.0,-100.00,NE,36,8.0,28.0,55,0.00,,,0.00,140.000000,,2013-02-25 04:11:00,
2013-02-24 18:21:00,69.0,52.0,-100.00,NE,36,8.0,28.0,55,0.00,,,0.00,140.000000,,2013-02-25 04:21:00,
2013-02-24 18:31:00,69.0,52.0,-100.00,NE,36,8.0,28.0,55,0.00,,,0.00,140.000000,,2013-02-25 04:31:00,
2013-02-24 19:01:00,68.0,52.0,-100.00,West,280,3.0,13.0,56,0.00,,,0.00,82.000000,,2013-02-25 05:01:00,
2013-02-24 19:11:00,68.0,52.0,-100.00,West,280,3.0,13.0,56,0.00,,,0.00,82.000000,,2013-02-25 05:11:00,
2013-02-24 19:22:00,68.0,52.0,-100.00,West,280,3.0,13.0,56,0.00,,,0.00,82.000000,,2013-02-25 05:22:00,
2013-02-24 19:31:00,68.0,52.0,-100.00,West,280,3.0,13.0,56,0.00,,,0.00,82.000000,,2013-02-25 05:31:00,
2013-02-24 20:02:00,64.0,54.0,-100.00,SSW,197,6.0,13.0,70,0.00,,,0.00,0.000000,,2013-02-25 06:02:00,
2013-02-24 20:11:00,64.0,54.0,-100.00,SSW,197,6.0,13.0,70,0.00,,,0.00,0.000000,,2013-02-25 06:11:00,
2013-02-24 20:21:00,64.0,54.0,-100.00,SSW,197,6.0,13.0,70,0.00,,,0.00,0.000000,,2013-02-25 06:21:00,
2013-02-24 20:31:00,64.0,54.0,-100.00,SSW,197,6.0,13.0,70,0.00,,,0.00,0.000000,,2013-02-25 06:31:00,
2013-02-24 21:01:00,61.0,50.0,-100.00,NE,52,8.0,12.0,67,0.00,,,0.00,0.000000,,2013-02-25 07:01:00,
2013-02-24 21:11:00,61.0,50.0,-100.00,NE,52,8.0,12.0,67,0.00,,,0.00,0.000000,,2013-02-25 07:11:00,
2013-02-24 21:21:00,61.0,50.0,-100.00,NE,52,8.0,12.0,67,0.00,,,0.00,0.000000,,2013-02-25 07:21:00,
2013-02-24 21:31:00,61.0,50.0,-100.00,NE,52,8.0,12.0,67,0.00,,,0.00,0.000000,,2013-02-25 07:31:00,
2013-02-24 21:52:00,60.0,52.0,-100.00,ESE,107,4.0,16.0,76,0.00,,,0.00,0.000000,,2013-02-25 07:52:00,
2013-02-24 22:01:00,60.0,52.0,-100.00,ESE,107,4.0,16.0,76,0.00,,,0.00,0.000000,,2013-02-25 08:01:00,
2013-02-24 22:11:00,60.0,52.0,-100.00,ESE,107,4.0,16.0,76,0.00,,,0.00,0.000000,,2013-02-25 08:11:00,
2013-02-24 22:21:00,60.0,52.0,-100.00,ESE,107,4.0,16.0,76,0.00,,,0.00,0.000000,,2013-02-25 08:21:00,
2013-02-24 22:31:00,60.0,52.0,-100.00,ESE,107,4.0,16.0,76,0.00,,,0.00,0.000000,,2013-02-25 08:31:00,
2013-02-24 22:52:00,59.0,50.0,-100.00,East,99,5.0,15.0,73,0.00,,,0.00,0.000000,,2013-02-25 08:52:00,
2013-02-24 23:01:00,59.0,50.0,-100.00,East,99,5.0,15.0,73,0.00,,,0.00,0.000000,,2013-02-25 09:01:00,
2013-02-24 23:12:00,59.0,50.0,-100.00,East,99,5.0,15.0,73,0.00,,,0.00,0.000000,,2013-02-25 09:12:00,
2013-02-24 23:21:00,59.0,50.0,-100.00,East,99,5.0,15.0,73,0.00,,,0.00,0.000000,,2013-02-25 09:21:00,
2013-02-24 23:31:00,59.0,50.0,-100.00,East,99,5.0,15.0,73,0.00,,,0.00,0.000000,,2013-02-25 09:31:00,